sensor_id;sensor_type;location;lat;lon;timestamp;temperature;humidity
12049;DHT22;6085;49.452;8.502;2024-02-21T00:02:47;8.10;99.90
12049;DHT22;6085;49.452;8.502;2024-02-21T00:06:48;8.10;99.90
12049;DHT22;6085;49.452;8.502;2024-02-21T00:10:50;8.00;99.90
12049;DHT22;6085;49.452;8.502;2024-02-21T00:14:54;8.00;99.90
12049;DHT22;6085;49.452;8.502;2024-02-21T00:19:01;8.00;99.90
12049;DHT22;6085;49.452;8.502;2024-02-21T00:23:03;8.00;99.90
12049;DHT22;6085;49.452;8.502;2024-02-21T00:27:05;8.00;99.90
12049;DHT22;6085;49.452;8.502;2024-02-21T00:31:07;8.00;99.90
12049;DHT22;6085;49.452;8.502;2024-02-21T00:35:10;8.00;99.90
12049;DHT22;6085;49.452;8.502;2024-02-21T00:39:12;8.00;99.90
12049;DHT22;6085;49.452;8.502;2024-02-21T00:43:14;8.00;99.90
12049;DHT22;6085;49.452;8.502;2024-02-21T00:47:16;8.00;99.90
12049;DHT22;6085;49.452;8.502;2024-02-21T00:51:19;8.00;99.90
12049;DHT22;6085;49.452;8.502;2024-02-21T00:55:21;8.00;99.90
12049;DHT22;6085;49.452;8.502;2024-02-21T00:59:23;7.90;99.90
12049;DHT22;6085;49.452;8.502;2024-02-21T01:03:25;7.80;99.90
12049;DHT22;6085;49.452;8.502;2024-02-21T01:07:28;7.70;99.90
12049;DHT22;6085;49.452;8.502;2024-02-21T01:11:30;7.70;99.90
12049;DHT22;6085;49.452;8.502;2024-02-21T01:15:31;7.60;99.90
12049;DHT22;6085;49.452;8.502;2024-02-21T01:19:33;7.40;99.90
12049;DHT22;6085;49.452;8.502;2024-02-21T01:23:37;7.20;99.90
12049;DHT22;6085;49.452;8.502;2024-02-21T01:27:38;7.10;99.90
12049;DHT22;6085;49.452;8.502;2024-02-21T01:31:40;7.00;99.90
12049;DHT22;6085;49.452;8.502;2024-02-21T01:35:42;7.00;99.90
12049;DHT22;6085;49.452;8.502;2024-02-21T01:39:45;7.00;99.90
12049;DHT22;6085;49.452;8.502;2024-02-21T01:43:47;6.90;99.90
12049;DHT22;6085;49.452;8.502;2024-02-21T01:47:49;6.90;99.90
12049;DHT22;6085;49.452;8.502;2024-02-21T01:51:52;6.80;99.90
12049;DHT22;6085;49.452;8.502;2024-02-21T01:55:56;6.90;99.90
12049;DHT22;6085;49.452;8.502;2024-02-21T01:59:58;7.00;99.90
12049;DHT22;6085;49.452;8.502;2024-02-21T02:04:00;7.10;99.90
12049;DHT22;6085;49.452;8.502;2024-02-21T02:08:03;7.10;99.90
12049;DHT22;6085;49.452;8.502;2024-02-21T02:12:07;7.10;99.90
12049;DHT22;6085;49.452;8.502;2024-02-21T02:16:09;7.00;99.90
12049;DHT22;6085;49.452;8.502;2024-02-21T02:20:12;6.90;99.90
12049;DHT22;6085;49.452;8.502;2024-02-21T02:24:16;6.80;99.90
12049;DHT22;6085;49.452;8.502;2024-02-21T02:28:18;6.80;99.90
12049;DHT22;6085;49.452;8.502;2024-02-21T02:32:20;6.80;99.90
12049;DHT22;6085;49.452;8.502;2024-02-21T02:36:22;6.70;99.90
12049;DHT22;6085;49.452;8.502;2024-02-21T02:40:25;6.70;99.90
12049;DHT22;6085;49.452;8.502;2024-02-21T02:44:27;6.60;99.90
12049;DHT22;6085;49.452;8.502;2024-02-21T02:48:29;6.50;99.90
12049;DHT22;6085;49.452;8.502;2024-02-21T02:52:31;6.50;99.90
12049;DHT22;6085;49.452;8.502;2024-02-21T02:56:34;6.50;99.90
12049;DHT22;6085;49.452;8.502;2024-02-21T03:00:36;6.50;99.90
12049;DHT22;6085;49.452;8.502;2024-02-21T03:04:39;6.50;99.90
12049;DHT22;6085;49.452;8.502;2024-02-21T03:08:41;6.50;99.90
12049;DHT22;6085;49.452;8.502;2024-02-21T03:12:45;6.50;99.90
12049;DHT22;6085;49.452;8.502;2024-02-21T03:16:47;6.50;99.90
12049;DHT22;6085;49.452;8.502;2024-02-21T03:20:48;6.50;99.90
12049;DHT22;6085;49.452;8.502;2024-02-21T03:24:50;6.40;99.90
12049;DHT22;6085;49.452;8.502;2024-02-21T03:28:53;6.40;99.90
12049;DHT22;6085;49.452;8.502;2024-02-21T03:32:55;6.40;99.90
12049;DHT22;6085;49.452;8.502;2024-02-21T03:36:57;6.30;99.90
12049;DHT22;6085;49.452;8.502;2024-02-21T03:40:59;6.30;99.90
12049;DHT22;6085;49.452;8.502;2024-02-21T03:45:03;6.30;99.90
12049;DHT22;6085;49.452;8.502;2024-02-21T03:49:05;6.10;99.90
12049;DHT22;6085;49.452;8.502;2024-02-21T03:53:07;6.10;99.90
12049;DHT22;6085;49.452;8.502;2024-02-21T03:57:10;6.00;99.90
12049;DHT22;6085;49.452;8.502;2024-02-21T04:01:15;5.90;99.90
12049;DHT22;6085;49.452;8.502;2024-02-21T04:05:17;5.80;99.90
12049;DHT22;6085;49.452;8.502;2024-02-21T04:09:19;6.00;99.90
12049;DHT22;6085;49.452;8.502;2024-02-21T04:13:21;6.20;99.90
12049;DHT22;6085;49.452;8.502;2024-02-21T04:17:24;6.50;99.90
12049;DHT22;6085;49.452;8.502;2024-02-21T04:21:26;6.60;99.90
12049;DHT22;6085;49.452;8.502;2024-02-21T04:25:28;6.70;99.90
12049;DHT22;6085;49.452;8.502;2024-02-21T04:29:29;6.60;99.90
12049;DHT22;6085;49.452;8.502;2024-02-21T04:33:33;6.60;99.90
12049;DHT22;6085;49.452;8.502;2024-02-21T04:37:35;6.60;99.90
12049;DHT22;6085;49.452;8.502;2024-02-21T04:41:36;6.50;99.90
12049;DHT22;6085;49.452;8.502;2024-02-21T04:45:38;6.60;99.90
12049;DHT22;6085;49.452;8.502;2024-02-21T04:49:41;6.50;99.90
12049;DHT22;6085;49.452;8.502;2024-02-21T04:53:43;6.30;99.90
12049;DHT22;6085;49.452;8.502;2024-02-21T04:57:45;6.10;99.90
12049;DHT22;6085;49.452;8.502;2024-02-21T05:01:47;6.00;99.90
12049;DHT22;6085;49.452;8.502;2024-02-21T05:05:50;5.90;99.90
12049;DHT22;6085;49.452;8.502;2024-02-21T05:09:52;5.80;99.90
12049;DHT22;6085;49.452;8.502;2024-02-21T05:13:54;5.70;99.90
12049;DHT22;6085;49.452;8.502;2024-02-21T05:17:55;5.60;99.90
12049;DHT22;6085;49.452;8.502;2024-02-21T05:21:59;5.50;99.90
12049;DHT22;6085;49.452;8.502;2024-02-21T05:26:00;5.40;99.90
12049;DHT22;6085;49.452;8.502;2024-02-21T05:30:03;5.20;99.90
12049;DHT22;6085;49.452;8.502;2024-02-21T05:34:07;5.00;99.90
12049;DHT22;6085;49.452;8.502;2024-02-21T05:38:10;4.90;99.90
12049;DHT22;6085;49.452;8.502;2024-02-21T05:42:12;4.70;99.90
12049;DHT22;6085;49.452;8.502;2024-02-21T05:46:14;4.70;99.90
12049;DHT22;6085;49.452;8.502;2024-02-21T05:50:16;4.70;99.90
12049;DHT22;6085;49.452;8.502;2024-02-21T05:54:19;4.60;99.90
12049;DHT22;6085;49.452;8.502;2024-02-21T05:58:21;4.50;99.90
12049;DHT22;6085;49.452;8.502;2024-02-21T06:02:23;4.50;99.90
12049;DHT22;6085;49.452;8.502;2024-02-21T06:06:25;4.60;99.90
12049;DHT22;6085;49.452;8.502;2024-02-21T06:10:28;4.60;99.90
12049;DHT22;6085;49.452;8.502;2024-02-21T06:14:30;4.60;99.90
12049;DHT22;6085;49.452;8.502;2024-02-21T06:18:32;4.60;99.90
12049;DHT22;6085;49.452;8.502;2024-02-21T06:22:33;4.50;99.90
12049;DHT22;6085;49.452;8.502;2024-02-21T06:26:37;4.50;99.90
12049;DHT22;6085;49.452;8.502;2024-02-21T06:30:40;4.50;99.90
12049;DHT22;6085;49.452;8.502;2024-02-21T06:34:42;4.60;99.90
12049;DHT22;6085;49.452;8.502;2024-02-21T06:38:44;4.60;99.90
12049;DHT22;6085;49.452;8.502;2024-02-21T06:42:47;4.70;99.90
12049;DHT22;6085;49.452;8.502;2024-02-21T06:46:49;4.70;99.90
12049;DHT22;6085;49.452;8.502;2024-02-21T06:50:51;4.80;99.90
12049;DHT22;6085;49.452;8.502;2024-02-21T06:54:53;4.80;99.90
12049;DHT22;6085;49.452;8.502;2024-02-21T06:58:56;4.90;99.90
12049;DHT22;6085;49.452;8.502;2024-02-21T07:02:58;5.00;99.90
12049;DHT22;6085;49.452;8.502;2024-02-21T07:07:00;5.20;99.90
12049;DHT22;6085;49.452;8.502;2024-02-21T07:11:02;5.40;99.90
12049;DHT22;6085;49.452;8.502;2024-02-21T07:15:06;5.60;99.90
12049;DHT22;6085;49.452;8.502;2024-02-21T07:19:07;5.90;99.90
12049;DHT22;6085;49.452;8.502;2024-02-21T07:23:09;6.20;99.90
12049;DHT22;6085;49.452;8.502;2024-02-21T07:27:14;6.40;99.90
12049;DHT22;6085;49.452;8.502;2024-02-21T07:31:17;6.50;99.90
12049;DHT22;6085;49.452;8.502;2024-02-21T07:35:19;6.70;99.90
12049;DHT22;6085;49.452;8.502;2024-02-21T07:39:21;6.90;99.90
12049;DHT22;6085;49.452;8.502;2024-02-21T07:43:23;7.10;99.90
12049;DHT22;6085;49.452;8.502;2024-02-21T07:47:28;7.30;99.90
12049;DHT22;6085;49.452;8.502;2024-02-21T07:51:30;7.60;99.90
12049;DHT22;6085;49.452;8.502;2024-02-21T07:55:32;7.80;99.90
12049;DHT22;6085;49.452;8.502;2024-02-21T07:59:34;8.00;99.90
12049;DHT22;6085;49.452;8.502;2024-02-21T08:03:37;8.30;99.90
12049;DHT22;6085;49.452;8.502;2024-02-21T08:07:39;8.50;99.90
12049;DHT22;6085;49.452;8.502;2024-02-21T08:11:40;8.70;99.90
12049;DHT22;6085;49.452;8.502;2024-02-21T08:15:42;8.80;99.90
12049;DHT22;6085;49.452;8.502;2024-02-21T08:19:46;8.90;99.90
12049;DHT22;6085;49.452;8.502;2024-02-21T08:23:49;9.10;99.90
12049;DHT22;6085;49.452;8.502;2024-02-21T08:27:53;9.10;99.90
12049;DHT22;6085;49.452;8.502;2024-02-21T08:31:55;9.20;99.90
12049;DHT22;6085;49.452;8.502;2024-02-21T08:35:58;9.40;99.90
12049;DHT22;6085;49.452;8.502;2024-02-21T08:40:00;9.60;99.90
12049;DHT22;6085;49.452;8.502;2024-02-21T08:44:05;9.70;99.90
12049;DHT22;6085;49.452;8.502;2024-02-21T08:48:07;9.80;99.90
12049;DHT22;6085;49.452;8.502;2024-02-21T08:52:11;9.90;99.90
12049;DHT22;6085;49.452;8.502;2024-02-21T08:56:13;9.90;99.90
12049;DHT22;6085;49.452;8.502;2024-02-21T09:00:16;10.10;99.90
12049;DHT22;6085;49.452;8.502;2024-02-21T09:04:17;10.70;99.90
12049;DHT22;6085;49.452;8.502;2024-02-21T09:08:21;11.50;99.90
12049;DHT22;6085;49.452;8.502;2024-02-21T09:12:24;12.20;99.90
12049;DHT22;6085;49.452;8.502;2024-02-21T09:16:26;12.90;99.90
12049;DHT22;6085;49.452;8.502;2024-02-21T09:20:28;13.90;99.90
12049;DHT22;6085;49.452;8.502;2024-02-21T09:24:32;15.20;99.90
12049;DHT22;6085;49.452;8.502;2024-02-21T09:28:34;15.70;99.90
12049;DHT22;6085;49.452;8.502;2024-02-21T09:32:35;16.10;99.90
12049;DHT22;6085;49.452;8.502;2024-02-21T09:36:38;15.90;99.90
12049;DHT22;6085;49.452;8.502;2024-02-21T09:40:45;15.80;99.90
12049;DHT22;6085;49.452;8.502;2024-02-21T09:44:47;15.60;99.90
12049;DHT22;6085;49.452;8.502;2024-02-21T09:49:01;15.30;99.90
12049;DHT22;6085;49.452;8.502;2024-02-21T09:53:06;14.30;99.90
12049;DHT22;6085;49.452;8.502;2024-02-21T09:57:10;13.40;99.90
12049;DHT22;6085;49.452;8.502;2024-02-21T10:01:11;13.20;99.90
12049;DHT22;6085;49.452;8.502;2024-02-21T10:05:13;13.10;99.90
12049;DHT22;6085;49.452;8.502;2024-02-21T10:09:22;13.10;99.90
12049;DHT22;6085;49.452;8.502;2024-02-21T10:13:26;12.90;99.90
12049;DHT22;6085;49.452;8.502;2024-02-21T10:17:28;12.90;99.90
12049;DHT22;6085;49.452;8.502;2024-02-21T10:21:30;12.90;99.90
12049;DHT22;6085;49.452;8.502;2024-02-21T10:25:32;12.70;99.90
12049;DHT22;6085;49.452;8.502;2024-02-21T10:29:36;13.00;99.90
12049;DHT22;6085;49.452;8.502;2024-02-21T10:33:38;13.50;99.90
12049;DHT22;6085;49.452;8.502;2024-02-21T10:37:40;13.60;99.90
12049;DHT22;6085;49.452;8.502;2024-02-21T10:41:42;13.50;99.90
12049;DHT22;6085;49.452;8.502;2024-02-21T10:45:47;13.40;99.90
12049;DHT22;6085;49.452;8.502;2024-02-21T10:49:57;13.70;99.90
12049;DHT22;6085;49.452;8.502;2024-02-21T10:54:09;13.30;99.90
12049;DHT22;6085;49.452;8.502;2024-02-21T10:58:14;12.80;99.90
12049;DHT22;6085;49.452;8.502;2024-02-21T11:02:17;12.80;99.90
12049;DHT22;6085;49.452;8.502;2024-02-21T11:06:20;12.90;99.90
12049;DHT22;6085;49.452;8.502;2024-02-21T11:10:23;13.10;99.90
12049;DHT22;6085;49.452;8.502;2024-02-21T11:14:27;13.10;99.90
12049;DHT22;6085;49.452;8.502;2024-02-21T11:18:30;13.00;99.90
12049;DHT22;6085;49.452;8.502;2024-02-21T11:22:41;13.00;99.90
12049;DHT22;6085;49.452;8.502;2024-02-21T11:26:43;13.00;99.90
12049;DHT22;6085;49.452;8.502;2024-02-21T11:30:45;12.80;99.90
12049;DHT22;6085;49.452;8.502;2024-02-21T11:34:55;13.00;99.90
12049;DHT22;6085;49.452;8.502;2024-02-21T11:39:03;13.10;99.90
12049;DHT22;6085;49.452;8.502;2024-02-21T11:43:06;13.00;99.90
12049;DHT22;6085;49.452;8.502;2024-02-21T11:47:08;12.90;99.90
12049;DHT22;6085;49.452;8.502;2024-02-21T11:51:11;13.00;99.90
12049;DHT22;6085;49.452;8.502;2024-02-21T11:55:22;13.00;99.90
12049;DHT22;6085;49.452;8.502;2024-02-21T11:59:24;12.90;99.90
12049;DHT22;6085;49.452;8.502;2024-02-21T12:03:26;12.50;99.90
12049;DHT22;6085;49.452;8.502;2024-02-21T12:07:29;12.20;99.90
12049;DHT22;6085;49.452;8.502;2024-02-21T12:11:31;12.40;99.90
12049;DHT22;6085;49.452;8.502;2024-02-21T12:15:33;12.50;99.90
12049;DHT22;6085;49.452;8.502;2024-02-21T12:19:35;12.60;99.90
12049;DHT22;6085;49.452;8.502;2024-02-21T12:23:39;12.80;99.90
12049;DHT22;6085;49.452;8.502;2024-02-21T12:27:41;13.00;99.90
12049;DHT22;6085;49.452;8.502;2024-02-21T12:31:43;12.90;99.90
12049;DHT22;6085;49.452;8.502;2024-02-21T12:35:45;13.00;99.90
12049;DHT22;6085;49.452;8.502;2024-02-21T12:39:48;13.00;99.90
12049;DHT22;6085;49.452;8.502;2024-02-21T12:43:50;12.90;99.90
12049;DHT22;6085;49.452;8.502;2024-02-21T12:47:52;12.80;99.90
12049;DHT22;6085;49.452;8.502;2024-02-21T12:51:54;12.60;99.90
12049;DHT22;6085;49.452;8.502;2024-02-21T12:55:58;12.50;99.90
12049;DHT22;6085;49.452;8.502;2024-02-21T13:00:00;12.30;99.90
12049;DHT22;6085;49.452;8.502;2024-02-21T13:04:02;12.30;99.90
12049;DHT22;6085;49.452;8.502;2024-02-21T13:08:04;12.50;99.90
12049;DHT22;6085;49.452;8.502;2024-02-21T13:12:08;12.50;99.90
12049;DHT22;6085;49.452;8.502;2024-02-21T13:16:10;12.50;99.90
12049;DHT22;6085;49.452;8.502;2024-02-21T13:20:12;12.60;99.90
12049;DHT22;6085;49.452;8.502;2024-02-21T13:24:14;12.80;99.90
12049;DHT22;6085;49.452;8.502;2024-02-21T13:28:18;12.70;99.90
12049;DHT22;6085;49.452;8.502;2024-02-21T13:32:20;12.60;99.90
12049;DHT22;6085;49.452;8.502;2024-02-21T13:36:21;12.50;99.90
12049;DHT22;6085;49.452;8.502;2024-02-21T13:40:24;12.50;99.90
12049;DHT22;6085;49.452;8.502;2024-02-21T13:44:27;12.40;99.90
12049;DHT22;6085;49.452;8.502;2024-02-21T13:48:29;12.30;99.90
12049;DHT22;6085;49.452;8.502;2024-02-21T13:52:31;12.40;99.90
12049;DHT22;6085;49.452;8.502;2024-02-21T13:56:34;12.50;99.90
12049;DHT22;6085;49.452;8.502;2024-02-21T14:00:37;12.60;99.90
12049;DHT22;6085;49.452;8.502;2024-02-21T14:04:39;12.50;99.90
12049;DHT22;6085;49.452;8.502;2024-02-21T14:08:41;12.60;99.90
12049;DHT22;6085;49.452;8.502;2024-02-21T14:12:43;12.50;99.90
12049;DHT22;6085;49.452;8.502;2024-02-21T14:16:46;12.80;99.90
12049;DHT22;6085;49.452;8.502;2024-02-21T14:20:48;13.00;99.90
12049;DHT22;6085;49.452;8.502;2024-02-21T14:24:50;13.00;99.90
12049;DHT22;6085;49.452;8.502;2024-02-21T14:28:52;12.80;99.90
12049;DHT22;6085;49.452;8.502;2024-02-21T14:32:56;12.60;99.90
12049;DHT22;6085;49.452;8.502;2024-02-21T14:36:57;12.50;99.90
12049;DHT22;6085;49.452;8.502;2024-02-21T14:40:59;12.40;99.90
12049;DHT22;6085;49.452;8.502;2024-02-21T14:45:01;12.50;99.90
12049;DHT22;6085;49.452;8.502;2024-02-21T14:49:06;12.60;99.90
12049;DHT22;6085;49.452;8.502;2024-02-21T14:53:08;12.70;99.90
12049;DHT22;6085;49.452;8.502;2024-02-21T14:57:10;12.70;99.90
12049;DHT22;6085;49.452;8.502;2024-02-21T15:01:12;12.50;99.90
12049;DHT22;6085;49.452;8.502;2024-02-21T15:05:16;12.40;99.90
12049;DHT22;6085;49.452;8.502;2024-02-21T15:09:17;12.30;99.90
12049;DHT22;6085;49.452;8.502;2024-02-21T15:13:20;12.40;99.90
12049;DHT22;6085;49.452;8.502;2024-02-21T15:17:22;12.40;99.90
12049;DHT22;6085;49.452;8.502;2024-02-21T15:21:26;12.20;99.90
12049;DHT22;6085;49.452;8.502;2024-02-21T15:25:28;12.10;99.90
12049;DHT22;6085;49.452;8.502;2024-02-21T15:29:31;12.00;99.90
12049;DHT22;6085;49.452;8.502;2024-02-21T15:33:33;11.90;99.90
12049;DHT22;6085;49.452;8.502;2024-02-21T15:37:36;11.80;99.90
12049;DHT22;6085;49.452;8.502;2024-02-21T15:41:38;11.70;99.90
12049;DHT22;6085;49.452;8.502;2024-02-21T15:45:49;11.60;99.90
12049;DHT22;6085;49.452;8.502;2024-02-21T15:49:50;11.50;99.90
12049;DHT22;6085;49.452;8.502;2024-02-21T15:53:52;11.40;99.90
12049;DHT22;6085;49.452;8.502;2024-02-21T15:57:54;11.30;99.90
12049;DHT22;6085;49.452;8.502;2024-02-21T16:01:57;11.20;99.90
12049;DHT22;6085;49.452;8.502;2024-02-21T16:06:01;11.10;99.90
12049;DHT22;6085;49.452;8.502;2024-02-21T16:10:03;11.00;99.90
12049;DHT22;6085;49.452;8.502;2024-02-21T16:14:05;10.90;99.90
12049;DHT22;6085;49.452;8.502;2024-02-21T16:18:09;10.90;99.90
12049;DHT22;6085;49.452;8.502;2024-02-21T16:22:11;10.80;99.90
12049;DHT22;6085;49.452;8.502;2024-02-21T16:26:14;10.70;99.90
12049;DHT22;6085;49.452;8.502;2024-02-21T16:30:16;10.60;99.90
12049;DHT22;6085;49.452;8.502;2024-02-21T16:34:19;10.60;99.90
12049;DHT22;6085;49.452;8.502;2024-02-21T16:38:21;10.50;99.90
12049;DHT22;6085;49.452;8.502;2024-02-21T16:42:23;10.50;99.90
12049;DHT22;6085;49.452;8.502;2024-02-21T16:46:26;10.40;99.90
12049;DHT22;6085;49.452;8.502;2024-02-21T16:50:29;10.40;99.90
12049;DHT22;6085;49.452;8.502;2024-02-21T16:54:31;10.30;99.90
12049;DHT22;6085;49.452;8.502;2024-02-21T16:58:33;10.30;99.90
12049;DHT22;6085;49.452;8.502;2024-02-21T17:02:38;10.30;99.90
12049;DHT22;6085;49.452;8.502;2024-02-21T17:06:42;10.20;99.90
12049;DHT22;6085;49.452;8.502;2024-02-21T17:10:43;10.10;99.90
12049;DHT22;6085;49.452;8.502;2024-02-21T17:14:45;10.10;99.90
12049;DHT22;6085;49.452;8.502;2024-02-21T17:18:47;10.00;99.90
12049;DHT22;6085;49.452;8.502;2024-02-21T17:22:51;10.00;99.90
12049;DHT22;6085;49.452;8.502;2024-02-21T17:26:52;10.00;99.90
12049;DHT22;6085;49.452;8.502;2024-02-21T17:30:54;10.00;99.90
12049;DHT22;6085;49.452;8.502;2024-02-21T17:34:56;9.90;99.90
12049;DHT22;6085;49.452;8.502;2024-02-21T17:38:59;9.90;99.90
12049;DHT22;6085;49.452;8.502;2024-02-21T17:43:01;9.80;99.90
12049;DHT22;6085;49.452;8.502;2024-02-21T17:47:04;9.80;99.90
12049;DHT22;6085;49.452;8.502;2024-02-21T17:51:06;9.80;99.90
12049;DHT22;6085;49.452;8.502;2024-02-21T17:55:09;9.80;99.90
12049;DHT22;6085;49.452;8.502;2024-02-21T17:59:12;9.90;99.90
12049;DHT22;6085;49.452;8.502;2024-02-21T18:03:14;10.00;99.90
12049;DHT22;6085;49.452;8.502;2024-02-21T18:07:17;10.00;99.90
12049;DHT22;6085;49.452;8.502;2024-02-21T18:11:22;9.90;99.90
12049;DHT22;6085;49.452;8.502;2024-02-21T18:15:24;9.90;99.90
12049;DHT22;6085;49.452;8.502;2024-02-21T18:19:26;9.80;99.90
12049;DHT22;6085;49.452;8.502;2024-02-21T18:23:28;9.80;99.90
12049;DHT22;6085;49.452;8.502;2024-02-21T18:27:31;9.80;99.90
12049;DHT22;6085;49.452;8.502;2024-02-21T18:31:33;9.80;99.90
12049;DHT22;6085;49.452;8.502;2024-02-21T18:35:35;9.80;99.90
12049;DHT22;6085;49.452;8.502;2024-02-21T18:39:37;9.80;99.90
12049;DHT22;6085;49.452;8.502;2024-02-21T18:43:40;9.70;99.90
12049;DHT22;6085;49.452;8.502;2024-02-21T18:47:42;9.80;99.90
12049;DHT22;6085;49.452;8.502;2024-02-21T18:51:44;9.80;99.90
12049;DHT22;6085;49.452;8.502;2024-02-21T18:55:46;9.80;99.90
12049;DHT22;6085;49.452;8.502;2024-02-21T18:59:49;9.80;99.90
12049;DHT22;6085;49.452;8.502;2024-02-21T19:03:51;9.80;99.90
12049;DHT22;6085;49.452;8.502;2024-02-21T19:07:53;9.80;99.90
12049;DHT22;6085;49.452;8.502;2024-02-21T19:11:55;9.70;99.90
12049;DHT22;6085;49.452;8.502;2024-02-21T19:15:59;9.80;99.90
12049;DHT22;6085;49.452;8.502;2024-02-21T19:20:01;9.80;99.90
12049;DHT22;6085;49.452;8.502;2024-02-21T19:24:03;9.80;99.90
12049;DHT22;6085;49.452;8.502;2024-02-21T19:28:07;9.70;99.90
12049;DHT22;6085;49.452;8.502;2024-02-21T19:32:12;9.70;99.90
12049;DHT22;6085;49.452;8.502;2024-02-21T19:36:16;9.70;99.90
12049;DHT22;6085;49.452;8.502;2024-02-21T19:40:19;9.70;99.90
12049;DHT22;6085;49.452;8.502;2024-02-21T19:44:23;9.80;99.90
12049;DHT22;6085;49.452;8.502;2024-02-21T19:48:26;9.80;99.90
12049;DHT22;6085;49.452;8.502;2024-02-21T19:52:28;9.80;99.90
12049;DHT22;6085;49.452;8.502;2024-02-21T19:56:31;9.80;99.90
12049;DHT22;6085;49.452;8.502;2024-02-21T20:00:33;9.80;99.90
12049;DHT22;6085;49.452;8.502;2024-02-21T20:04:37;9.80;99.90
12049;DHT22;6085;49.452;8.502;2024-02-21T20:08:39;9.80;99.90
12049;DHT22;6085;49.452;8.502;2024-02-21T20:12:41;9.80;99.90
12049;DHT22;6085;49.452;8.502;2024-02-21T20:16:43;9.80;99.90
12049;DHT22;6085;49.452;8.502;2024-02-21T20:20:46;9.70;99.90
12049;DHT22;6085;49.452;8.502;2024-02-21T20:24:48;9.70;99.90
12049;DHT22;6085;49.452;8.502;2024-02-21T20:28:50;9.70;99.90
12049;DHT22;6085;49.452;8.502;2024-02-21T20:32:52;9.70;99.90
12049;DHT22;6085;49.452;8.502;2024-02-21T20:36:57;9.70;99.90
12049;DHT22;6085;49.452;8.502;2024-02-21T20:40:59;9.80;99.90
12049;DHT22;6085;49.452;8.502;2024-02-21T20:45:03;9.80;99.90
12049;DHT22;6085;49.452;8.502;2024-02-21T20:49:06;9.90;99.90
12049;DHT22;6085;49.452;8.502;2024-02-21T20:53:09;10.00;99.90
12049;DHT22;6085;49.452;8.502;2024-02-21T20:57:11;10.00;99.90
12049;DHT22;6085;49.452;8.502;2024-02-21T21:01:13;9.90;99.90
12049;DHT22;6085;49.452;8.502;2024-02-21T21:05:15;9.70;99.90
12049;DHT22;6085;49.452;8.502;2024-02-21T21:09:19;9.50;99.90
12049;DHT22;6085;49.452;8.502;2024-02-21T21:13:21;9.30;99.90
12049;DHT22;6085;49.452;8.502;2024-02-21T21:17:23;9.10;99.90
12049;DHT22;6085;49.452;8.502;2024-02-21T21:21:25;9.00;99.90
12049;DHT22;6085;49.452;8.502;2024-02-21T21:25:28;9.10;99.90
12049;DHT22;6085;49.452;8.502;2024-02-21T21:29:30;9.20;99.90
12049;DHT22;6085;49.452;8.502;2024-02-21T21:33:34;9.40;99.90
12049;DHT22;6085;49.452;8.502;2024-02-21T21:37:36;9.60;99.90
12049;DHT22;6085;49.452;8.502;2024-02-21T21:41:39;9.80;99.90
12049;DHT22;6085;49.452;8.502;2024-02-21T21:45:41;9.90;99.90
12049;DHT22;6085;49.452;8.502;2024-02-21T21:49:43;10.00;99.90
12049;DHT22;6085;49.452;8.502;2024-02-21T21:53:45;10.20;99.90
12049;DHT22;6085;49.452;8.502;2024-02-21T21:57:49;10.40;99.90
12049;DHT22;6085;49.452;8.502;2024-02-21T22:01:52;10.60;99.90
12049;DHT22;6085;49.452;8.502;2024-02-21T22:05:55;10.70;99.90
12049;DHT22;6085;49.452;8.502;2024-02-21T22:09:57;10.70;99.90
12049;DHT22;6085;49.452;8.502;2024-02-21T22:14:00;10.60;99.90
12049;DHT22;6085;49.452;8.502;2024-02-21T22:18:04;10.60;99.90
12049;DHT22;6085;49.452;8.502;2024-02-21T22:22:06;10.60;99.90
12049;DHT22;6085;49.452;8.502;2024-02-21T22:26:08;10.50;99.90
12049;DHT22;6085;49.452;8.502;2024-02-21T22:30:11;10.40;99.90
12049;DHT22;6085;49.452;8.502;2024-02-21T22:34:13;10.40;99.90
12049;DHT22;6085;49.452;8.502;2024-02-21T22:38:15;10.40;99.90
12049;DHT22;6085;49.452;8.502;2024-02-21T22:42:17;10.40;99.90
12049;DHT22;6085;49.452;8.502;2024-02-21T22:46:20;10.40;99.90
12049;DHT22;6085;49.452;8.502;2024-02-21T22:50:22;10.40;99.90
12049;DHT22;6085;49.452;8.502;2024-02-21T22:54:24;10.40;99.90
12049;DHT22;6085;49.452;8.502;2024-02-21T22:58:26;10.40;99.90
12049;DHT22;6085;49.452;8.502;2024-02-21T23:02:29;10.30;99.90
12049;DHT22;6085;49.452;8.502;2024-02-21T23:06:31;10.20;99.90
12049;DHT22;6085;49.452;8.502;2024-02-21T23:10:33;10.10;99.90
12049;DHT22;6085;49.452;8.502;2024-02-21T23:14:35;10.00;99.90
12049;DHT22;6085;49.452;8.502;2024-02-21T23:18:38;10.00;99.90
12049;DHT22;6085;49.452;8.502;2024-02-21T23:22:41;9.90;99.90
12049;DHT22;6085;49.452;8.502;2024-02-21T23:26:43;9.80;99.90
12049;DHT22;6085;49.452;8.502;2024-02-21T23:30:45;9.70;99.90
12049;DHT22;6085;49.452;8.502;2024-02-21T23:34:48;9.70;99.90
12049;DHT22;6085;49.452;8.502;2024-02-21T23:38:50;9.60;99.90
12049;DHT22;6085;49.452;8.502;2024-02-21T23:42:52;9.60;99.90
12049;DHT22;6085;49.452;8.502;2024-02-21T23:46:54;9.70;99.90
12049;DHT22;6085;49.452;8.502;2024-02-21T23:50:57;9.70;99.90
12049;DHT22;6085;49.452;8.502;2024-02-21T23:54:59;9.70;99.90
12049;DHT22;6085;49.452;8.502;2024-02-21T23:59:02;9.70;99.90
